Time;durP1;ratioP1;P1;durP2;ratioP2;P2;SDS_P1;SDS_P2;PMS_P1;PMS_P2;Temp;Humidity;BMP_temperature;BMP_pressure;BME280_temperature;BME280_humidity;BME280_pressure;Samples;Min_cycle;Max_cycle;Signal;HPM_P1;HPM_P2
2022/03/17 00:01:37;;;;;;;;;5.67;5.67;;;;;12.65;62.50;101456.50;5076164;27;45554;-71
2022/03/17 00:04:03;;;;;;;;;5.00;5.00;;;;;12.67;62.43;101462.59;5076436;27;45496;-70
2022/03/17 00:06:28;;;;;;;;;6.67;6.33;;;;;12.68;62.15;101464.31;5076199;28;45520;-70
2022/03/17 00:08:54;;;;;;;;;6.67;6.33;;;;;12.71;62.22;101466.91;5076530;28;45385;-70
2022/03/17 00:11:20;;;;;;;;;6.00;6.00;;;;;12.68;62.19;101470.50;5075037;27;46215;-70
2022/03/17 00:13:46;;;;;;;;;4.33;4.33;;;;;12.69;62.19;101474.00;5075821;27;45320;-70
2022/03/17 00:16:12;;;;;;;;;9.00;6.67;;;;;12.67;61.80;101474.03;5076269;28;45296;-70
2022/03/17 00:18:37;;;;;;;;;9.67;9.67;;;;;12.63;61.61;101475.03;5075764;28;45501;-69
2022/03/17 00:21:03;;;;;;;;;8.67;6.00;;;;;12.61;62.52;101471.56;5075780;27;46064;-70
2022/03/17 00:23:29;;;;;;;;;10.67;10.67;;;;;12.60;62.80;101481.28;5075727;27;45710;-69
2022/03/17 00:25:56;;;;;;;;;12.33;10.33;;;;;12.55;62.73;101490.25;5076154;28;45420;-70
2022/03/17 00:28:21;;;;;;;;;8.33;8.33;;;;;12.53;62.45;101494.69;5075643;27;45431;-70
2022/03/17 00:30:46;;;;;;;;;10.00;10.00;;;;;12.53;62.51;101494.69;5073990;27;45469;-70
2022/03/17 00:33:12;;;;;;;;;11.67;11.00;;;;;12.52;62.57;101504.38;5075863;28;45436;-71
2022/03/17 00:35:42;;;;;;;;;12.67;11.00;;;;;12.48;62.68;101507.16;5075995;28;45550;-69
2022/03/17 00:38:25;;;;;;;;;13.33;10.67;;;;;12.44;62.82;101509.00;5074335;28;45681;-70
2022/03/17 00:40:51;;;;;;;;;11.33;11.33;;;;;12.45;62.57;101512.50;5073928;27;47312;-70
2022/03/17 00:43:16;;;;;;;;;12.67;12.67;;;;;12.41;62.22;101511.72;5073283;28;45663;-70
2022/03/17 00:45:45;;;;;;;;;13.67;12.00;;;;;12.41;62.83;101514.34;5073583;28;45660;-70
2022/03/17 00:48:10;;;;;;;;;16.00;16.00;;;;;12.40;63.26;101523.19;5074674;27;45444;-70
2022/03/17 00:50:36;;;;;;;;;14.00;14.00;;;;;12.38;63.61;101525.88;5072957;28;47213;-70
2022/03/17 00:53:03;;;;;;;;;15.00;15.00;;;;;12.41;62.87;101526.69;5074778;28;45381;-70
2022/03/17 00:55:28;;;;;;;;;17.00;17.00;;;;;12.42;63.17;101526.66;5075401;27;45474;-72
2022/03/17 00:57:54;;;;;;;;;19.33;19.33;;;;;12.45;63.04;101530.97;5074592;27;45346;-71
2022/03/17 01:00:21;;;;;;;;;21.33;19.00;;;;;12.44;62.96;101545.94;5074981;28;46194;-70
2022/03/17 01:02:49;;;;;;;;;16.33;16.33;;;;;12.42;63.55;101536.34;5075249;28;45377;-70
2022/03/17 01:05:15;;;;;;;;;18.33;16.00;;;;;12.43;62.61;101544.19;5090859;27;45512;-72
2022/03/17 01:07:40;;;;;;;;;19.00;16.67;;;;;12.38;63.06;101548.75;5074617;27;45566;-70
2022/03/17 01:10:08;;;;;;;;;16.67;14.33;;;;;12.32;63.73;101539.22;5074670;27;46213;-70
2022/03/17 01:12:33;;;;;;;;;19.33;19.33;;;;;12.34;63.63;101542.69;5074393;27;45500;-70
2022/03/17 01:14:59;;;;;;;;;15.00;15.00;;;;;12.38;63.41;101547.00;5074886;28;45566;-70
2022/03/17 01:17:26;;;;;;;;;20.00;20.00;;;;;12.41;63.20;101551.28;5074975;28;45370;-70
2022/03/17 01:19:51;;;;;;;;;20.00;18.00;;;;;12.43;63.13;101553.91;5074957;27;45394;-71
2022/03/17 01:22:17;;;;;;;;;16.67;16.67;;;;;12.44;63.62;101555.63;5075204;27;45390;-70
2022/03/17 01:24:43;;;;;;;;;18.33;17.33;;;;;12.42;63.79;101563.59;5075173;28;45450;-70
2022/03/17 01:27:09;;;;;;;;;18.33;16.33;;;;;12.43;63.75;101572.38;5074730;27;45362;-70
2022/03/17 01:29:34;;;;;;;;;18.67;18.67;;;;;12.44;63.66;101571.44;5073680;27;46998;-70
2022/03/17 01:32:00;;;;;;;;;16.00;13.00;;;;;12.42;62.96;101574.13;5074827;28;45409;-70
2022/03/17 01:34:25;;;;;;;;;21.33;19.00;;;;;12.42;63.23;101583.84;5075187;27;45420;-69
2022/03/17 01:36:50;;;;;;;;;18.00;17.67;;;;;12.37;63.53;101592.72;5074712;27;45562;-71
2022/03/17 01:39:16;;;;;;;;;19.00;18.33;;;;;12.38;64.09;101590.94;5074836;27;45475;-71
2022/03/17 01:41:41;;;;;;;;;21.00;19.67;;;;;12.39;63.11;101579.50;5074023;28;45440;-71
2022/03/17 01:44:07;;;;;;;;;18.67;17.00;;;;;12.41;63.21;101593.50;5077828;27;45466;-72
2022/03/17 01:47:26;;;;;;;;;20.00;19.33;;;;;12.42;63.74;101589.97;5078291;27;45426;-70
2022/03/17 01:49:18;;;;;;;;;23.33;21.67;;;;;12.39;63.21;101590.06;5077449;27;45857;-70
2022/03/17 01:51:45;;;;;;;;;20.00;20.00;;;;;12.38;63.74;101596.22;5078160;28;45524;-69
2022/03/17 01:54:10;;;;;;;;;24.33;21.67;;;;;12.35;63.96;101598.94;5078293;27;45564;-71
2022/03/17 01:56:36;;;;;;;;;16.33;16.33;;;;;12.35;63.67;101601.59;5077902;27;45633;-70
2022/03/17 01:59:01;;;;;;;;;22.67;20.67;;;;;12.36;63.40;101603.34;5077537;28;46086;-71
2022/03/17 02:01:27;;;;;;;;;24.33;19.00;;;;;12.33;63.58;101593.72;5077893;28;45466;-70
2022/03/17 02:03:53;;;;;;;;;18.67;17.33;;;;;12.37;62.98;101605.91;5077511;28;45501;-70
2022/03/17 02:06:19;;;;;;;;;19.67;17.00;;;;;12.35;63.51;101604.22;5077565;27;45419;-69
2022/03/17 02:08:44;;;;;;;;;22.67;19.00;;;;;12.34;63.47;101606.00;5077032;28;46929;-70
2022/03/17 02:13:54;;;;;;;;;19.33;19.33;;;;;12.27;63.33;101611.47;5077492;28;45473;-70
2022/03/17 02:16:19;;;;;;;;;17.67;17.67;;;;;12.25;63.34;101622.09;5075964;27;45518;-70
2022/03/17 02:18:46;;;;;;;;;18.67;17.33;;;;;12.23;63.34;101630.94;5077704;28;45464;-70
2022/03/17 02:21:12;;;;;;;;;20.00;17.67;;;;;12.15;63.83;101634.63;5077510;28;45543;-70
2022/03/17 02:26:22;;;;;;;;;25.00;20.00;;;;;12.19;63.74;101650.38;5075208;28;45476;-71
2022/03/17 02:28:47;;;;;;;;;20.33;20.00;;;;;12.16;64.00;101636.34;5077966;27;46221;-70
2022/03/17 02:31:13;;;;;;;;;19.67;19.33;;;;;12.16;63.80;101636.34;5076541;27;45531;-71
2022/03/17 02:33:40;;;;;;;;;18.33;16.67;;;;;12.16;63.96;101635.47;5077670;28;45453;-71
2022/03/17 02:36:08;;;;;;;;;22.33;22.33;;;;;12.20;63.31;101645.06;5077261;27;45488;-71
2022/03/17 02:38:33;;;;;;;;;18.33;18.00;;;;;12.22;64.00;101630.03;5075886;28;46349;-70
2022/03/17 02:40:59;;;;;;;;;20.00;19.00;;;;;12.25;63.53;101637.00;5077139;27;45510;-70
2022/03/17 02:43:24;;;;;;;;;18.00;18.00;;;;;12.23;63.70;101639.72;5075203;28;45667;-71
2022/03/17 02:45:50;;;;;;;;;20.33;20.33;;;;;12.15;63.37;101634.63;5076748;28;45499;-69
2022/03/17 02:48:16;;;;;;;;;11.67;10.67;;;;;12.13;64.05;101646.13;5075246;28;46990;-70
2022/03/17 02:50:42;;;;;;;;;20.00;17.00;;;;;12.15;63.88;101665.41;5076649;28;45404;-72
2022/03/17 02:53:09;;;;;;;;;17.00;17.00;;;;;12.15;63.95;101668.06;5076832;27;45331;-71
2022/03/17 02:55:40;;;;;;;;;15.33;15.33;;;;;12.19;63.22;101663.56;5074679;27;45534;-70
2022/03/17 02:58:07;;;;;;;;;19.33;18.00;;;;;12.21;63.63;101664.38;5076783;28;46287;-71
2022/03/17 03:00:33;;;;;;;;;20.67;20.00;;;;;12.16;63.39;101662.72;5076607;28;45450;-71
2022/03/17 03:03:00;;;;;;;;;23.00;21.00;;;;;12.18;63.13;101670.59;5075848;28;45585;-71
2022/03/17 03:05:26;;;;;;;;;21.33;19.33;;;;;12.16;63.08;101672.41;5071032;27;45543;-70
2022/03/17 03:07:52;;;;;;;;;18.00;18.00;;;;;12.15;63.64;101682.09;5075121;27;46236;-69
2022/03/17 03:10:17;;;;;;;;;23.00;19.67;;;;;12.13;63.18;101683.91;5059207;28;45517;-69
2022/03/17 03:12:42;;;;;;;;;19.67;19.67;;;;;12.11;63.59;101680.41;5065646;28;45501;-70
2022/03/17 03:15:09;;;;;;;;;21.33;18.67;;;;;12.13;63.90;101694.44;5076054;27;45505;-69
2022/03/17 03:17:34;;;;;;;;;20.00;18.33;;;;;12.12;63.16;101687.44;5070119;27;45604;-69
2022/03/17 03:20:00;;;;;;;;;19.00;19.00;;;;;12.16;63.50;101701.41;5074746;27;45425;-69
2022/03/17 03:22:29;;;;;;;;;18.67;18.00;;;;;12.18;62.90;101689.06;5060381;27;45515;-69
2022/03/17 03:24:58;;;;;;;;;18.33;18.33;;;;;12.18;62.90;101686.44;5058472;28;45342;-69
2022/03/17 03:27:27;;;;;;;;;20.00;20.00;;;;;12.16;63.80;101697.00;5068863;27;45425;-69
2022/03/17 03:29:56;;;;;;;;;22.00;19.67;;;;;12.14;62.81;101692.66;5059717;28;45572;-69
2022/03/17 03:32:22;;;;;;;;;19.33;18.00;;;;;12.10;62.84;101683.97;5076549;28;45378;-69
2022/03/17 03:34:49;;;;;;;;;13.33;13.00;;;;;12.12;62.13;101698.00;5070627;27;45425;-70
2022/03/17 03:37:23;;;;;;;;;19.67;19.67;;;;;12.08;62.99;101704.22;5075287;27;45506;-70
2022/03/17 03:39:50;;;;;;;;;15.00;15.00;;;;;12.06;62.47;101710.44;5076255;27;45441;-70
2022/03/17 03:42:16;;;;;;;;;24.33;17.33;;;;;11.96;62.51;101711.59;5075692;28;45516;-71
2022/03/17 03:44:41;;;;;;;;;18.67;18.67;;;;;11.93;62.74;101723.94;5076022;28;45618;-70
2022/03/17 03:47:08;;;;;;;;;15.00;14.33;;;;;11.91;62.08;101725.72;5075545;27;45575;-71
2022/03/17 03:49:34;;;;;;;;;19.00;16.00;;;;;11.88;62.00;101730.22;5076026;28;45548;-69
2022/03/17 03:51:59;;;;;;;;;17.00;15.67;;;;;11.83;61.10;101740.81;5076340;27;45513;-70
2022/03/17 03:54:25;;;;;;;;;20.33;19.67;;;;;11.77;62.50;101742.72;5075948;28;45425;-70
2022/03/17 03:56:53;;;;;;;;;16.33;16.33;;;;;11.81;61.96;101747.03;5074699;27;46032;-70
2022/03/17 03:59:24;;;;;;;;;18.00;16.67;;;;;11.81;61.96;101755.78;5076412;27;45600;-70
2022/03/17 04:01:57;;;;;;;;;18.00;16.33;;;;;11.81;61.41;101768.09;5076232;27;45391;-71
2022/03/17 04:04:24;;;;;;;;;17.33;17.33;;;;;11.77;61.72;101758.53;5075826;27;45467;-70
2022/03/17 04:07:01;;;;;;;;;15.00;14.00;;;;;11.69;60.90;101772.75;5075234;28;46451;-69
2022/03/17 04:09:29;;;;;;;;;17.00;16.67;;;;;11.66;61.50;101775.44;5075151;27;45554;-70
2022/03/17 04:11:56;;;;;;;;;16.33;14.33;;;;;11.63;61.71;101788.69;5075092;28;45537;-69
2022/03/17 04:14:22;;;;;;;;;14.00;12.67;;;;;11.60;61.92;101785.22;5076169;27;45377;-71
2022/03/17 04:16:48;;;;;;;;;14.67;14.67;;;;;11.54;60.29;101793.28;5075654;27;46184;-70
2022/03/17 04:19:15;;;;;;;;;13.33;11.33;;;;;11.49;60.85;101790.72;5075329;28;45498;-70
2022/03/17 04:21:41;;;;;;;;;13.33;11.00;;;;;11.49;60.65;101796.84;5075377;27;45530;-71
2022/03/17 04:24:06;;;;;;;;;9.00;9.00;;;;;11.49;60.43;101793.34;5075341;28;45550;-71
2022/03/17 04:26:32;;;;;;;;;12.67;12.67;;;;;11.49;59.73;101803.91;5065356;28;46363;-69
2022/03/17 04:28:57;;;;;;;;;12.00;11.67;;;;;11.45;60.18;101792.56;5076159;27;45446;-70
2022/03/17 04:31:23;;;;;;;;;14.67;13.33;;;;;11.50;59.60;101816.19;5075218;28;45332;-69
2022/03/17 04:33:49;;;;;;;;;11.00;11.00;;;;;11.46;59.48;101825.03;5076190;27;45521;-69
2022/03/17 04:36:15;;;;;;;;;11.00;11.00;;;;;11.43;60.63;101819.81;5074760;27;45430;-70
2022/03/17 04:38:41;;;;;;;;;10.00;10.00;;;;;11.43;59.84;101825.97;5075407;27;45496;-71
2022/03/17 04:41:08;;;;;;;;;12.00;11.00;;;;;11.43;60.21;101830.38;5075936;27;45429;-70
2022/03/17 04:43:33;;;;;;;;;15.67;11.67;;;;;11.42;60.24;101826.00;5075489;27;45358;-71
2022/03/17 04:45:59;;;;;;;;;9.00;9.00;;;;;11.36;59.41;101839.28;5075161;28;46084;-69
2022/03/17 04:48:24;;;;;;;;;12.00;12.00;;;;;11.36;60.03;101842.78;5074899;28;45429;-72
2022/03/17 04:50:50;;;;;;;;;12.00;10.00;;;;;11.38;59.91;101842.75;5075313;27;45468;-68
2022/03/17 04:53:27;;;;;;;;;8.33;8.33;;;;;11.32;60.32;101854.28;5075079;28;48884;-71
2022/03/17 04:55:57;;;;;;;;;12.33;11.00;;;;;11.30;59.18;101850.78;5074401;28;46054;-69
2022/03/17 04:58:23;;;;;;;;;11.00;10.00;;;;;11.26;60.36;101857.03;5074948;28;45505;-71
2022/03/17 05:00:48;;;;;;;;;9.33;9.33;;;;;11.26;60.44;101860.53;5075171;28;45397;-70
2022/03/17 05:03:14;;;;;;;;;11.67;10.67;;;;;11.24;60.27;101864.94;5074495;27;45468;-70
2022/03/17 05:05:40;;;;;;;;;12.33;12.33;;;;;11.22;59.93;101866.72;5074626;28;46048;-70
2022/03/17 05:08:06;;;;;;;;;12.00;11.33;;;;;11.30;59.79;101878.91;5074854;28;45634;-70
2022/03/17 05:10:35;;;;;;;;;13.33;11.67;;;;;11.30;59.98;101873.63;5074992;28;45431;-69
2022/03/17 05:13:01;;;;;;;;;12.00;12.00;;;;;11.36;59.90;101878.78;5075111;28;45592;-70
2022/03/17 05:15:27;;;;;;;;;11.67;11.67;;;;;11.31;59.28;101880.63;5074365;27;46117;-70
2022/03/17 05:17:52;;;;;;;;;7.33;6.00;;;;;11.25;58.71;101882.47;5076998;27;45429;-71
2022/03/17 05:20:17;;;;;;;;;8.00;8.00;;;;;11.20;59.28;101875.53;5078385;27;45469;-69
2022/03/17 05:22:43;;;;;;;;;10.33;8.67;;;;;11.26;59.15;101878.09;5078635;27;45428;-71
2022/03/17 05:25:10;;;;;;;;;8.00;8.00;;;;;11.27;58.54;101882.44;5078060;27;46083;-70
2022/03/17 05:27:40;;;;;;;;;10.33;10.33;;;;;11.30;59.58;101910.50;5078351;27;45647;-71
2022/03/17 05:30:06;;;;;;;;;9.67;9.67;;;;;11.25;59.22;101902.66;5077813;28;45446;-69
2022/03/17 05:32:32;;;;;;;;;9.67;9.67;;;;;11.23;59.74;101905.34;5078029;28;45477;-69
2022/03/17 05:34:58;;;;;;;;;11.00;9.00;;;;;11.24;59.50;101906.22;5078043;28;45544;-69
2022/03/17 05:37:23;;;;;;;;;9.33;9.33;;;;;11.29;59.26;101920.19;5078050;27;45458;-71
2022/03/17 05:39:49;;;;;;;;;9.67;6.67;;;;;11.27;59.08;101914.06;5078349;28;45458;-69
2022/03/17 05:42:15;;;;;;;;;9.00;9.00;;;;;11.27;59.28;101929.84;5077863;28;45659;-70
2022/03/17 05:44:40;;;;;;;;;10.33;10.33;;;;;11.29;59.63;101930.72;5077784;27;46298;-69
2022/03/17 05:47:06;;;;;;;;;6.33;6.33;;;;;11.34;59.43;101935.88;5078155;27;45465;-71
2022/03/17 05:49:31;;;;;;;;;9.00;9.00;;;;;11.26;59.04;101936.91;5077963;27;45503;-70
2022/03/17 05:51:56;;;;;;;;;10.00;9.00;;;;;11.16;59.91;101935.31;5076994;27;45662;-69
2022/03/17 05:54:22;;;;;;;;;10.33;10.33;;;;;11.16;60.02;101934.44;5077932;27;45426;-70
2022/03/17 05:56:47;;;;;;;;;9.00;8.00;;;;;11.14;59.92;101947.63;5077515;28;45405;-71
2022/03/17 05:59:13;;;;;;;;;11.00;9.33;;;;;11.12;59.84;101952.03;5078276;28;45454;-70
2022/03/17 06:01:38;;;;;;;;;6.67;6.67;;;;;11.10;59.15;101950.34;5078238;27;45522;-70
2022/03/17 06:04:04;;;;;;;;;6.33;6.33;;;;;11.10;59.44;101955.63;5077753;28;46293;-70
2022/03/17 06:06:29;;;;;;;;;7.50;7.50;;;;;11.08;58.61;101963.53;5078131;27;45453;-68
2022/03/17 06:08:54;;;;;;;;;7.33;7.33;;;;;11.08;58.38;101965.28;5077373;27;45472;-69
2022/03/17 06:11:20;;;;;;;;;7.67;7.67;;;;;11.05;59.20;101964.44;5077435;28;45452;-64
2022/03/17 06:13:46;;;;;;;;;9.00;9.00;;;;;11.05;59.58;101964.44;5077695;27;45614;-66
2022/03/17 06:16:12;;;;;;;;;7.00;7.00;;;;;11.09;59.60;101975.78;5078335;28;45437;-65
2022/03/17 06:18:37;;;;;;;;;5.00;4.00;;;;;11.06;58.93;101979.31;5093887;27;45484;-66
2022/03/17 06:21:02;;;;;;;;;9.67;9.00;;;;;11.08;59.31;101995.13;5077975;27;45464;-65
2022/03/17 06:23:28;;;;;;;;;8.67;7.67;;;;;11.07;59.38;102003.91;5093665;27;46278;-66
2022/03/17 06:25:53;;;;;;;;;9.67;9.00;;;;;10.99;59.00;101985.59;5077241;27;45552;-66
2022/03/17 06:28:18;;;;;;;;;8.00;8.00;;;;;11.03;58.15;102010.09;5078043;27;45448;-64
2022/03/17 06:30:44;;;;;;;;;10.00;10.00;;;;;11.01;58.77;102014.53;5077854;27;45411;-65
2022/03/17 06:33:10;;;;;;;;;11.00;9.67;;;;;10.99;58.92;102016.31;5077181;28;45448;-65
2022/03/17 06:35:36;;;;;;;;;6.33;6.33;;;;;10.96;57.92;102026.88;5077564;28;45339;-65
2022/03/17 06:38:03;;;;;;;;;7.33;7.33;;;;;10.87;58.13;102033.13;5079407;27;45408;-65
2022/03/17 06:40:29;;;;;;;;;5.00;5.00;;;;;10.83;57.89;102027.06;5086621;27;45372;-66
2022/03/17 06:42:55;;;;;;;;;7.00;7.00;;;;;10.84;58.52;102030.56;5076813;27;45484;-67
2022/03/17 06:45:21;;;;;;;;;7.00;7.00;;;;;10.86;58.16;102041.06;5077697;27;45402;-66
2022/03/17 06:47:47;;;;;;;;;5.00;5.00;;;;;10.83;57.23;102052.50;5076830;27;45433;-66
2022/03/17 06:50:14;;;;;;;;;4.00;4.00;;;;;10.78;57.43;102055.19;5076105;27;45627;-66
2022/03/17 06:52:40;;;;;;;;;4.67;4.00;;;;;10.82;58.21;102059.50;5085538;27;48048;-66
2022/03/17 06:55:07;;;;;;;;;4.33;4.33;;;;;10.88;57.32;102060.31;5077272;28;45408;-65
2022/03/17 06:57:32;;;;;;;;;4.33;4.00;;;;;10.94;57.86;102068.16;5076656;27;45461;-65
2022/03/17 06:59:57;;;;;;;;;7.67;7.00;;;;;10.99;57.41;102077.75;5077367;28;45679;-65
2022/03/17 07:02:23;;;;;;;;;5.00;5.00;;;;;11.01;56.57;102078.56;5075778;28;45962;-65
2022/03/17 07:04:48;;;;;;;;;7.00;7.00;;;;;10.99;57.40;102079.50;5076403;27;45369;-66
2022/03/17 07:07:15;;;;;;;;;7.50;7.50;;;;;11.03;56.97;102084.69;5076496;28;45513;-66
2022/03/17 07:09:41;;;;;;;;;5.00;5.00;;;;;11.02;56.43;102090.84;5076762;28;45523;-66
2022/03/17 07:12:10;;;;;;;;;5.00;5.00;;;;;11.01;56.76;102094.34;5076652;27;45550;-65
2022/03/17 07:14:35;;;;;;;;;5.33;5.33;;;;;10.99;56.10;102097.94;5076044;27;45643;-65
2022/03/17 07:17:00;;;;;;;;;5.00;5.00;;;;;10.90;56.82;102098.03;5076225;28;45505;-66
2022/03/17 07:19:26;;;;;;;;;5.00;5.00;;;;;10.95;56.84;102102.34;5076357;28;45668;-65
2022/03/17 07:21:54;;;;;;;;;6.00;5.00;;;;;10.93;57.04;102116.41;5076044;27;46015;-66
2022/03/17 07:24:19;;;;;;;;;5.00;5.00;;;;;10.97;57.12;102113.75;5075989;27;45369;-62
2022/03/17 07:26:45;;;;;;;;;6.00;6.00;;;;;11.02;55.66;102116.31;5075915;27;45817;-62
2022/03/17 07:29:10;;;;;;;;;4.33;4.00;;;;;11.00;55.69;102124.22;5076257;27;45493;-61
2022/03/17 07:31:35;;;;;;;;;9.67;8.00;;;;;10.95;56.85;102125.19;5075570;28;48621;-68
2022/03/17 07:34:01;;;;;;;;;3.67;3.67;;;;;10.95;56.74;102127.81;5076698;28;45481;-69
2022/03/17 07:36:27;;;;;;;;;9.00;8.67;;;;;11.01;56.25;102138.25;5076246;28;45397;-68
2022/03/17 07:38:57;;;;;;;;;7.00;7.00;;;;;11.05;55.63;102147.88;5074787;27;45618;-70
2022/03/17 07:41:24;;;;;;;;;8.33;7.33;;;;;11.10;56.34;102146.06;5075680;27;45427;-68
2022/03/17 07:43:50;;;;;;;;;6.33;6.33;;;;;11.12;55.22;102138.97;5075119;28;45426;-68
2022/03/17 07:46:16;;;;;;;;;5.00;5.00;;;;;11.14;55.15;102147.75;5074809;27;45521;-68
2022/03/17 07:48:41;;;;;;;;;9.33;6.33;;;;;11.08;54.57;102153.09;5076334;27;45424;-68
2022/03/17 07:51:08;;;;;;;;;8.00;6.67;;;;;11.05;55.66;102146.09;5074881;27;45517;-69
2022/03/17 07:53:34;;;;;;;;;7.00;7.00;;;;;11.03;54.99;102150.50;5076183;27;45495;-68
2022/03/17 07:55:59;;;;;;;;;4.33;4.00;;;;;11.02;54.43;102159.31;5076007;28;45475;-70
2022/03/17 07:58:26;;;;;;;;;5.00;5.00;;;;;11.01;54.28;102161.94;5075961;28;45525;-68
2022/03/17 08:00:52;;;;;;;;;5.33;5.33;;;;;11.05;54.86;102168.94;5075753;28;45436;-68
2022/03/17 08:03:19;;;;;;;;;7.00;7.00;;;;;11.10;54.29;102175.00;5075576;28;45393;-70
2022/03/17 08:05:48;;;;;;;;;9.00;8.67;;;;;11.15;54.17;102182.84;5075801;28;45453;-70
2022/03/17 08:08:14;;;;;;;;;7.00;7.00;;;;;11.17;54.94;102174.03;5075633;27;45525;-69
2022/03/17 08:10:40;;;;;;;;;7.00;5.67;;;;;11.20;54.88;102179.28;5075667;28;45500;-70
2022/03/17 08:13:06;;;;;;;;;4.00;4.00;;;;;11.19;54.15;102177.53;5075433;27;45502;-69
2022/03/17 08:15:32;;;;;;;;;5.00;5.00;;;;;11.21;54.38;102178.38;5074979;27;45399;-69
2022/03/17 08:17:57;;;;;;;;;5.67;5.67;;;;;11.20;53.74;102192.44;5075536;27;45389;-69
2022/03/17 08:20:23;;;;;;;;;5.00;5.00;;;;;11.17;54.22;102187.19;5075073;28;45406;-70
2022/03/17 08:22:50;;;;;;;;;8.00;8.00;;;;;11.19;54.07;102197.72;5075778;28;45436;-68
2022/03/17 08:25:16;;;;;;;;;7.00;7.00;;;;;11.15;54.51;102203.91;5075634;27;45519;-70
2022/03/17 08:27:42;;;;;;;;;9.00;7.00;;;;;11.16;54.53;102214.44;5075601;27;45437;-68
2022/03/17 08:30:08;;;;;;;;;7.00;5.00;;;;;11.19;53.61;102219.66;5075293;28;45876;-70
2022/03/17 08:32:34;;;;;;;;;8.00;8.00;;;;;11.24;54.75;102223.09;5075319;27;45445;-70
2022/03/17 08:34:59;;;;;;;;;7.00;7.00;;;;;11.25;53.66;102219.56;5075106;27;45449;-69
2022/03/17 08:37:24;;;;;;;;;10.33;9.00;;;;;11.26;54.27;102221.34;5075591;28;45433;-70
2022/03/17 08:39:50;;;;;;;;;7.67;7.67;;;;;11.28;54.63;102238.00;5075497;27;45464;-67
2022/03/17 08:42:16;;;;;;;;;8.33;8.00;;;;;11.25;53.37;102238.00;5075310;28;45488;-69
2022/03/17 08:44:41;;;;;;;;;6.67;6.67;;;;;11.24;53.63;102233.66;5073907;28;45406;-69
2022/03/17 08:49:50;;;;;;;;;8.33;8.33;;;;;11.29;53.82;102254.66;5075007;28;45827;-68
2022/03/17 08:52:16;;;;;;;;;8.00;8.00;;;;;11.31;54.51;102259.91;5075816;28;45514;-68
2022/03/17 08:54:44;;;;;;;;;8.33;7.33;;;;;11.27;53.25;102256.44;5079081;27;45366;-68
2022/03/17 08:57:11;;;;;;;;;7.00;7.00;;;;;11.22;54.14;102267.03;5078698;27;45480;-69
2022/03/17 08:59:37;;;;;;;;;8.67;8.00;;;;;11.25;53.53;102274.00;5077433;27;46246;-69
2022/03/17 09:02:04;;;;;;;;;13.33;9.33;;;;;11.24;53.08;102280.19;5078670;28;45422;-69
2022/03/17 09:04:30;;;;;;;;;10.33;9.33;;;;;11.16;54.28;102282.03;5078785;27;45451;-69
2022/03/17 09:06:59;;;;;;;;;8.00;8.00;;;;;11.12;53.88;102291.69;5078778;27;45390;-69
2022/03/17 09:09:33;;;;;;;;;7.67;4.67;;;;;11.17;53.57;102291.66;5078477;28;45415;-70
2022/03/17 09:11:59;;;;;;;;;7.67;7.67;;;;;11.16;54.19;102277.63;5078658;27;45388;-70
2022/03/17 09:14:25;;;;;;;;;7.00;7.00;;;;;11.19;53.73;102293.41;5078647;27;45439;-68
2022/03/17 09:16:51;;;;;;;;;9.00;6.67;;;;;11.17;53.45;102289.03;5078511;28;45588;-70
2022/03/17 09:19:18;;;;;;;;;8.00;8.00;;;;;11.20;54.09;102289.00;5077389;27;45615;-69
2022/03/17 09:21:44;;;;;;;;;8.00;8.00;;;;;11.17;53.52;102289.91;5078495;27;45366;-68
2022/03/17 09:24:09;;;;;;;;;8.33;8.33;;;;;11.19;53.05;102292.53;5078189;28;45385;-69
2022/03/17 09:26:34;;;;;;;;;8.67;8.00;;;;;11.19;53.18;102297.78;5078611;27;45433;-69
2022/03/17 09:29:00;;;;;;;;;11.67;11.00;;;;;11.23;54.05;102303.03;5078164;27;45508;-71
2022/03/17 09:31:25;;;;;;;;;12.00;11.00;;;;;11.31;54.50;102307.31;5078349;27;45402;-69
2022/03/17 09:33:51;;;;;;;;;7.67;7.67;;;;;11.29;52.65;102307.34;5078413;27;45427;-69
2022/03/17 09:36:16;;;;;;;;;8.67;8.67;;;;;11.29;52.14;102309.97;5078222;27;45272;-68
2022/03/17 09:38:42;;;;;;;;;7.33;7.33;;;;;11.23;52.90;102326.72;5076978;28;45648;-69
2022/03/17 09:41:24;;;;;;;;;14.00;13.00;;;;;11.23;52.74;102331.09;5078217;28;45427;-70
2022/03/17 09:43:51;;;;;;;;;11.00;10.33;;;;;11.27;53.07;102327.56;5078194;27;45500;-69
2022/03/17 09:46:18;;;;;;;;;9.33;8.67;;;;;11.28;52.66;102324.03;5078067;27;45312;-68
2022/03/17 09:48:44;;;;;;;;;8.00;8.00;;;;;11.27;52.76;102327.56;5077766;28;46152;-68
2022/03/17 09:51:11;;;;;;;;;6.00;6.00;;;;;11.26;52.26;102334.59;5077748;28;45474;-71
2022/03/17 09:53:36;;;;;;;;;10.33;10.00;;;;;11.24;52.18;102325.81;5077566;27;45355;-71
2022/03/17 09:56:01;;;;;;;;;9.00;9.00;;;;;11.23;53.00;102326.72;5077252;27;45400;-71
2022/03/17 09:58:27;;;;;;;;;11.67;9.33;;;;;11.28;53.31;102322.28;5076861;28;46177;-70
2022/03/17 10:00:55;;;;;;;;;12.00;10.00;;;;;11.38;52.88;102341.47;5077539;28;45451;-70
2022/03/17 10:03:25;;;;;;;;;11.00;10.00;;;;;11.45;52.89;102337.91;5077152;28;45446;-70
2022/03/17 10:05:52;;;;;;;;;12.00;12.00;;;;;11.48;52.87;102348.41;5077681;28;45521;-71
2022/03/17 10:08:20;;;;;;;;;11.00;9.00;;;;;11.53;53.53;102350.13;5077318;27;46284;-71
2022/03/17 10:10:46;;;;;;;;;11.67;11.67;;;;;11.53;52.05;102352.75;5077164;28;45445;-69
2022/03/17 10:13:22;;;;;;;;;10.00;10.00;;;;;11.49;52.97;102344.88;5077307;28;45373;-70
2022/03/17 10:16:18;;;;;;;;;9.33;9.33;;;;;11.50;52.61;102348.41;5077264;27;45588;-71
2022/03/17 10:18:47;;;;;;;;;11.33;8.67;;;;;11.55;53.13;102350.97;5076815;28;46548;-71
2022/03/17 10:21:18;;;;;;;;;14.33;10.00;;;;;11.59;51.78;102358.81;5077034;27;45445;-68
2022/03/17 10:23:55;;;;;;;;;11.67;10.33;;;;;11.63;52.38;102359.66;5077080;27;45481;-70
2022/03/17 10:26:37;;;;;;;;;9.33;9.33;;;;;11.66;52.20;102355.25;5075389;28;45530;-71
2022/03/17 10:29:07;;;;;;;;;6.67;6.67;;;;;11.70;52.46;102364.84;5077202;27;45393;-71
2022/03/17 10:31:54;;;;;;;;;11.00;8.67;;;;;11.72;51.82;102367.47;5077324;27;45562;-71
2022/03/17 10:34:21;;;;;;;;;8.00;8.00;;;;;11.69;51.19;102373.66;5077150;27;45521;-69
2022/03/17 10:36:48;;;;;;;;;10.33;10.33;;;;;11.61;51.30;102372.00;5092835;27;45625;-72
2022/03/17 10:39:14;;;;;;;;;10.67;10.00;;;;;11.62;51.53;102365.81;5077380;28;45398;-72
2022/03/17 10:41:45;;;;;;;;;9.67;9.67;;;;;11.60;51.62;102371.09;5076961;28;45469;-70
2022/03/17 10:44:12;;;;;;;;;9.00;8.00;;;;;11.65;51.94;102379.81;5077014;28;45377;-68
2022/03/17 10:46:52;;;;;;;;;9.67;8.67;;;;;11.64;50.92;102391.28;5092608;27;45404;-68
2022/03/17 10:49:18;;;;;;;;;10.33;9.00;;;;;11.55;49.97;102380.81;5076665;28;45466;-69
2022/03/17 10:51:44;;;;;;;;;11.67;10.33;;;;;11.54;52.18;102388.75;5076517;27;45437;-69
2022/03/17 10:54:20;;;;;;;;;5.00;5.00;;;;;11.57;52.03;102388.72;5076375;28;45457;-66
2022/03/17 10:57:03;;;;;;;;;10.00;9.00;;;;;11.67;52.39;102399.13;5076202;28;45459;-69
2022/03/17 10:59:47;;;;;;;;;9.67;9.67;;;;;11.75;51.40;102395.56;5076294;27;45515;-71
2022/03/17 11:02:17;;;;;;;;;10.00;10.00;;;;;11.71;50.99;102392.97;5075893;27;45535;-70
2022/03/17 11:04:44;;;;;;;;;10.67;9.33;;;;;11.67;50.85;102401.78;5075741;28;45447;-70
2022/03/17 11:07:13;;;;;;;;;10.00;10.00;;;;;11.56;51.38;102398.38;5076601;27;45367;-71
2022/03/17 11:09:42;;;;;;;;;12.33;12.33;;;;;11.62;51.67;102402.72;5074777;27;45377;-71
2022/03/17 11:12:09;;;;;;;;;11.67;11.67;;;;;11.58;52.14;102399.25;5075042;27;45463;-71
2022/03/17 11:14:49;;;;;;;;;9.33;9.33;;;;;11.62;51.03;102410.63;5075843;27;45430;-70
2022/03/17 11:17:23;;;;;;;;;10.67;10.33;;;;;11.66;50.94;102413.22;5074699;27;45403;-70
2022/03/17 11:19:49;;;;;;;;;10.33;8.00;;;;;11.64;50.39;102407.09;5076013;27;45970;-69
2022/03/17 11:22:20;;;;;;;;;12.67;12.67;;;;;11.59;50.13;102415.94;5075776;27;45512;-70
2022/03/17 11:24:46;;;;;;;;;9.67;9.00;;;;;11.48;50.19;102423.94;5076162;27;45472;-71